sensor_id;sensor_type;location;lat;lon;timestamp;P1;durP1;ratioP1;P2;durP2;ratioP2
22955;SDS011;40888;48.148;11.526;2023-12-14T00:01:12;3.30;;;2.27;;
22955;SDS011;40888;48.148;11.526;2023-12-14T00:03:38;3.17;;;2.60;;
22955;SDS011;40888;48.148;11.526;2023-12-14T00:06:09;4.10;;;2.83;;
22955;SDS011;40888;48.148;11.526;2023-12-14T00:08:35;2.03;;;1.93;;
22955;SDS011;40888;48.148;11.526;2023-12-14T00:11:05;2.57;;;2.37;;
22955;SDS011;40888;48.148;11.526;2023-12-14T00:13:31;3.13;;;2.83;;
22955;SDS011;40888;48.148;11.526;2023-12-14T00:15:57;2.50;;;2.17;;
22955;SDS011;40888;48.148;11.526;2023-12-14T00:18:23;2.90;;;2.70;;
22955;SDS011;40888;48.148;11.526;2023-12-14T00:20:49;2.80;;;2.60;;
22955;SDS011;40888;48.148;11.526;2023-12-14T00:23:15;2.37;;;2.17;;
22955;SDS011;40888;48.148;11.526;2023-12-14T00:25:41;2.37;;;2.17;;
22955;SDS011;40888;48.148;11.526;2023-12-14T00:28:07;3.53;;;2.80;;
22955;SDS011;40888;48.148;11.526;2023-12-14T00:30:34;2.97;;;2.77;;
22955;SDS011;40888;48.148;11.526;2023-12-14T00:33:00;2.77;;;2.57;;
22955;SDS011;40888;48.148;11.526;2023-12-14T00:35:26;3.87;;;3.00;;
22955;SDS011;40888;48.148;11.526;2023-12-14T00:37:52;3.50;;;2.87;;
22955;SDS011;40888;48.148;11.526;2023-12-14T00:40:19;2.87;;;2.53;;
22955;SDS011;40888;48.148;11.526;2023-12-14T00:42:45;4.80;;;3.10;;
22955;SDS011;40888;48.148;11.526;2023-12-14T00:45:11;4.77;;;3.07;;
22955;SDS011;40888;48.148;11.526;2023-12-14T00:47:37;3.30;;;3.10;;
22955;SDS011;40888;48.148;11.526;2023-12-14T00:50:03;4.13;;;3.10;;
22955;SDS011;40888;48.148;11.526;2023-12-14T00:52:30;4.90;;;3.37;;
22955;SDS011;40888;48.148;11.526;2023-12-14T00:54:56;4.00;;;3.47;;
22955;SDS011;40888;48.148;11.526;2023-12-14T00:57:22;3.90;;;3.27;;
22955;SDS011;40888;48.148;11.526;2023-12-14T00:59:48;6.87;;;3.60;;
22955;SDS011;40888;48.148;11.526;2023-12-14T01:02:14;4.43;;;4.00;;
22955;SDS011;40888;48.148;11.526;2023-12-14T01:04:40;4.77;;;4.37;;
22955;SDS011;40888;48.148;11.526;2023-12-14T01:07:07;5.17;;;3.90;;
22955;SDS011;40888;48.148;11.526;2023-12-14T01:09:33;4.57;;;3.77;;
22955;SDS011;40888;48.148;11.526;2023-12-14T01:11:59;4.67;;;4.20;;
22955;SDS011;40888;48.148;11.526;2023-12-14T01:14:25;6.87;;;4.53;;
22955;SDS011;40888;48.148;11.526;2023-12-14T01:16:51;5.27;;;4.00;;
22955;SDS011;40888;48.148;11.526;2023-12-14T01:19:17;3.53;;;3.23;;
22955;SDS011;40888;48.148;11.526;2023-12-14T01:21:43;4.37;;;3.97;;
22955;SDS011;40888;48.148;11.526;2023-12-14T01:24:09;3.60;;;3.33;;
22955;SDS011;40888;48.148;11.526;2023-12-14T01:26:36;3.67;;;3.37;;
22955;SDS011;40888;48.148;11.526;2023-12-14T01:29:02;2.97;;;2.70;;
22955;SDS011;40888;48.148;11.526;2023-12-14T01:31:28;2.47;;;2.37;;
22955;SDS011;40888;48.148;11.526;2023-12-14T01:33:54;2.50;;;2.30;;
22955;SDS011;40888;48.148;11.526;2023-12-14T01:36:20;2.40;;;2.20;;
22955;SDS011;40888;48.148;11.526;2023-12-14T01:38:46;3.33;;;2.77;;
22955;SDS011;40888;48.148;11.526;2023-12-14T01:41:12;2.53;;;2.33;;
22955;SDS011;40888;48.148;11.526;2023-12-14T01:43:38;4.17;;;2.70;;
22955;SDS011;40888;48.148;11.526;2023-12-14T01:46:05;2.77;;;2.57;;
22955;SDS011;40888;48.148;11.526;2023-12-14T01:48:31;2.70;;;2.50;;
22955;SDS011;40888;48.148;11.526;2023-12-14T01:50:57;2.70;;;2.50;;
22955;SDS011;40888;48.148;11.526;2023-12-14T01:53:23;2.23;;;2.10;;
22955;SDS011;40888;48.148;11.526;2023-12-14T01:55:49;2.17;;;2.07;;
22955;SDS011;40888;48.148;11.526;2023-12-14T01:58:15;2.37;;;2.17;;
22955;SDS011;40888;48.148;11.526;2023-12-14T02:03:07;2.37;;;2.17;;
22955;SDS011;40888;48.148;11.526;2023-12-14T02:05:33;2.73;;;2.47;;
22955;SDS011;40888;48.148;11.526;2023-12-14T02:07:59;2.70;;;1.97;;
22955;SDS011;40888;48.148;11.526;2023-12-14T02:10:25;2.40;;;2.23;;
22955;SDS011;40888;48.148;11.526;2023-12-14T02:12:51;2.53;;;2.27;;
22955;SDS011;40888;48.148;11.526;2023-12-14T02:15:17;2.97;;;2.70;;
22955;SDS011;40888;48.148;11.526;2023-12-14T02:17:43;3.53;;;2.47;;
22955;SDS011;40888;48.148;11.526;2023-12-14T02:20:09;2.70;;;2.43;;
22955;SDS011;40888;48.148;11.526;2023-12-14T02:22:47;3.20;;;2.90;;
22955;SDS011;40888;48.148;11.526;2023-12-14T02:25:17;3.17;;;2.87;;
22955;SDS011;40888;48.148;11.526;2023-12-14T02:27:43;3.83;;;3.53;;
22955;SDS011;40888;48.148;11.526;2023-12-14T02:30:10;4.83;;;3.40;;
22955;SDS011;40888;48.148;11.526;2023-12-14T02:32:37;4.37;;;3.93;;
22955;SDS011;40888;48.148;11.526;2023-12-14T02:35:03;4.90;;;4.40;;
22955;SDS011;40888;48.148;11.526;2023-12-14T02:37:29;6.23;;;5.40;;
22955;SDS011;40888;48.148;11.526;2023-12-14T02:39:55;6.30;;;5.70;;
22955;SDS011;40888;48.148;11.526;2023-12-14T02:42:21;6.60;;;5.83;;
22955;SDS011;40888;48.148;11.526;2023-12-14T02:44:47;7.00;;;6.30;;
22955;SDS011;40888;48.148;11.526;2023-12-14T02:47:13;8.20;;;6.87;;
22955;SDS011;40888;48.148;11.526;2023-12-14T02:49:41;8.97;;;6.90;;
22955;SDS011;40888;48.148;11.526;2023-12-14T02:52:09;11.60;;;7.73;;
22955;SDS011;40888;48.148;11.526;2023-12-14T02:54:38;9.83;;;7.53;;
22955;SDS011;40888;48.148;11.526;2023-12-14T02:57:04;9.10;;;7.13;;
22955;SDS011;40888;48.148;11.526;2023-12-14T02:59:30;9.27;;;7.70;;
22955;SDS011;40888;48.148;11.526;2023-12-14T03:01:56;8.97;;;7.97;;
22955;SDS011;40888;48.148;11.526;2023-12-14T03:04:23;11.03;;;8.33;;
22955;SDS011;40888;48.148;11.526;2023-12-14T03:06:49;11.33;;;8.07;;
22955;SDS011;40888;48.148;11.526;2023-12-14T03:09:15;9.57;;;8.07;;
22955;SDS011;40888;48.148;11.526;2023-12-14T03:11:41;13.00;;;8.70;;
22955;SDS011;40888;48.148;11.526;2023-12-14T03:14:07;9.63;;;8.20;;
22955;SDS011;40888;48.148;11.526;2023-12-14T03:16:33;12.10;;;8.93;;
22955;SDS011;40888;48.148;11.526;2023-12-14T03:19:00;9.80;;;8.43;;
22955;SDS011;40888;48.148;11.526;2023-12-14T03:21:26;8.60;;;7.70;;
22955;SDS011;40888;48.148;11.526;2023-12-14T03:23:52;9.20;;;8.03;;
22955;SDS011;40888;48.148;11.526;2023-12-14T03:26:18;10.00;;;8.83;;
22955;SDS011;40888;48.148;11.526;2023-12-14T03:28:44;10.17;;;8.73;;
22955;SDS011;40888;48.148;11.526;2023-12-14T03:31:11;10.13;;;8.60;;
22955;SDS011;40888;48.148;11.526;2023-12-14T03:33:41;10.23;;;8.60;;
22955;SDS011;40888;48.148;11.526;2023-12-14T03:36:07;9.47;;;8.43;;
22955;SDS011;40888;48.148;11.526;2023-12-14T03:38:34;9.90;;;8.73;;
22955;SDS011;40888;48.148;11.526;2023-12-14T03:41:00;11.63;;;9.47;;
22955;SDS011;40888;48.148;11.526;2023-12-14T03:43:26;11.60;;;9.57;;
22955;SDS011;40888;48.148;11.526;2023-12-14T03:45:52;13.17;;;9.67;;
22955;SDS011;40888;48.148;11.526;2023-12-14T03:48:18;11.40;;;9.60;;
22955;SDS011;40888;48.148;11.526;2023-12-14T03:50:44;10.47;;;8.37;;
22955;SDS011;40888;48.148;11.526;2023-12-14T03:53:10;10.70;;;9.00;;
22955;SDS011;40888;48.148;11.526;2023-12-14T03:55:37;11.10;;;9.40;;
22955;SDS011;40888;48.148;11.526;2023-12-14T03:58:03;12.60;;;9.67;;
22955;SDS011;40888;48.148;11.526;2023-12-14T04:00:29;10.50;;;8.77;;
22955;SDS011;40888;48.148;11.526;2023-12-14T04:02:55;12.07;;;9.30;;
22955;SDS011;40888;48.148;11.526;2023-12-14T04:05:21;12.50;;;10.37;;
22955;SDS011;40888;48.148;11.526;2023-12-14T04:07:47;13.63;;;10.73;;
22955;SDS011;40888;48.148;11.526;2023-12-14T04:10:13;11.97;;;10.10;;
22955;SDS011;40888;48.148;11.526;2023-12-14T04:12:39;13.53;;;9.50;;
22955;SDS011;40888;48.148;11.526;2023-12-14T04:15:06;12.10;;;9.87;;
22955;SDS011;40888;48.148;11.526;2023-12-14T04:17:32;14.80;;;10.00;;
22955;SDS011;40888;48.148;11.526;2023-12-14T04:19:59;11.00;;;9.17;;
22955;SDS011;40888;48.148;11.526;2023-12-14T04:22:25;11.90;;;10.00;;
22955;SDS011;40888;48.148;11.526;2023-12-14T04:24:51;11.43;;;9.10;;
22955;SDS011;40888;48.148;11.526;2023-12-14T04:27:17;9.93;;;8.57;;
22955;SDS011;40888;48.148;11.526;2023-12-14T04:29:43;10.53;;;8.73;;
22955;SDS011;40888;48.148;11.526;2023-12-14T04:32:10;11.07;;;8.23;;
22955;SDS011;40888;48.148;11.526;2023-12-14T04:34:36;10.33;;;8.37;;
22955;SDS011;40888;48.148;11.526;2023-12-14T04:37:02;11.27;;;7.90;;
22955;SDS011;40888;48.148;11.526;2023-12-14T04:39:28;12.37;;;8.47;;
22955;SDS011;40888;48.148;11.526;2023-12-14T04:41:54;10.67;;;8.37;;
22955;SDS011;40888;48.148;11.526;2023-12-14T04:44:20;9.10;;;7.80;;
22955;SDS011;40888;48.148;11.526;2023-12-14T04:46:49;9.30;;;7.93;;
22955;SDS011;40888;48.148;11.526;2023-12-14T04:49:15;8.80;;;6.67;;
22955;SDS011;40888;48.148;11.526;2023-12-14T04:51:42;9.07;;;6.97;;
22955;SDS011;40888;48.148;11.526;2023-12-14T04:54:08;11.67;;;6.77;;
22955;SDS011;40888;48.148;11.526;2023-12-14T04:56:34;7.90;;;6.57;;
22955;SDS011;40888;48.148;11.526;2023-12-14T04:59:00;6.90;;;6.03;;
22955;SDS011;40888;48.148;11.526;2023-12-14T05:01:27;6.03;;;5.43;;
22955;SDS011;40888;48.148;11.526;2023-12-14T05:03:53;6.20;;;5.60;;
22955;SDS011;40888;48.148;11.526;2023-12-14T05:06:20;7.03;;;5.60;;
22955;SDS011;40888;48.148;11.526;2023-12-14T05:08:46;5.77;;;4.80;;
22955;SDS011;40888;48.148;11.526;2023-12-14T05:11:12;5.00;;;4.50;;
22955;SDS011;40888;48.148;11.526;2023-12-14T05:13:39;4.87;;;4.10;;
22955;SDS011;40888;48.148;11.526;2023-12-14T05:16:05;4.90;;;4.33;;
22955;SDS011;40888;48.148;11.526;2023-12-14T05:18:31;5.10;;;4.10;;
22955;SDS011;40888;48.148;11.526;2023-12-14T05:20:57;6.60;;;4.93;;
22955;SDS011;40888;48.148;11.526;2023-12-14T05:23:23;5.63;;;4.40;;
22955;SDS011;40888;48.148;11.526;2023-12-14T05:25:49;5.43;;;4.60;;
22955;SDS011;40888;48.148;11.526;2023-12-14T05:28:15;7.60;;;4.43;;
22955;SDS011;40888;48.148;11.526;2023-12-14T05:30:42;5.60;;;4.03;;
22955;SDS011;40888;48.148;11.526;2023-12-14T05:33:08;6.10;;;4.37;;
22955;SDS011;40888;48.148;11.526;2023-12-14T05:35:34;5.60;;;4.40;;
22955;SDS011;40888;48.148;11.526;2023-12-14T05:38:00;4.33;;;3.93;;
22955;SDS011;40888;48.148;11.526;2023-12-14T05:40:26;6.17;;;4.20;;
22955;SDS011;40888;48.148;11.526;2023-12-14T05:42:52;6.23;;;4.77;;
22955;SDS011;40888;48.148;11.526;2023-12-14T05:45:18;6.50;;;5.40;;
22955;SDS011;40888;48.148;11.526;2023-12-14T05:47:44;9.30;;;5.17;;
22955;SDS011;40888;48.148;11.526;2023-12-14T05:50:10;8.03;;;5.83;;
22955;SDS011;40888;48.148;11.526;2023-12-14T05:52:37;7.90;;;5.80;;
22955;SDS011;40888;48.148;11.526;2023-12-14T05:55:04;12.50;;;7.10;;
22955;SDS011;40888;48.148;11.526;2023-12-14T05:57:30;7.83;;;6.27;;
22955;SDS011;40888;48.148;11.526;2023-12-14T05:59:56;8.67;;;6.73;;
22955;SDS011;40888;48.148;11.526;2023-12-14T06:02:22;8.07;;;6.77;;
22955;SDS011;40888;48.148;11.526;2023-12-14T06:04:48;11.47;;;6.93;;
22955;SDS011;40888;48.148;11.526;2023-12-14T06:07:14;11.53;;;7.57;;
22955;SDS011;40888;48.148;11.526;2023-12-14T06:09:42;10.40;;;7.77;;
22955;SDS011;40888;48.148;11.526;2023-12-14T06:12:08;13.20;;;8.90;;
22955;SDS011;40888;48.148;11.526;2023-12-14T06:14:34;10.97;;;8.07;;
22955;SDS011;40888;48.148;11.526;2023-12-14T06:17:00;16.17;;;9.60;;
22955;SDS011;40888;48.148;11.526;2023-12-14T06:19:26;13.13;;;8.57;;
22955;SDS011;40888;48.148;11.526;2023-12-14T06:21:52;13.13;;;9.30;;
22955;SDS011;40888;48.148;11.526;2023-12-14T06:24:18;16.03;;;9.67;;
22955;SDS011;40888;48.148;11.526;2023-12-14T06:26:46;13.10;;;10.13;;
22955;SDS011;40888;48.148;11.526;2023-12-14T06:29:12;13.77;;;9.10;;
22955;SDS011;40888;48.148;11.526;2023-12-14T06:31:38;14.60;;;10.77;;
22955;SDS011;40888;48.148;11.526;2023-12-14T06:34:07;16.80;;;11.03;;
22955;SDS011;40888;48.148;11.526;2023-12-14T06:36:33;15.87;;;10.57;;
22955;SDS011;40888;48.148;11.526;2023-12-14T06:39:00;16.83;;;9.93;;
22955;SDS011;40888;48.148;11.526;2023-12-14T06:41:26;15.47;;;10.80;;
22955;SDS011;40888;48.148;11.526;2023-12-14T06:43:53;12.73;;;10.40;;
22955;SDS011;40888;48.148;11.526;2023-12-14T06:46:19;12.17;;;9.77;;
22955;SDS011;40888;48.148;11.526;2023-12-14T06:48:45;19.33;;;11.87;;
22955;SDS011;40888;48.148;11.526;2023-12-14T06:51:11;17.60;;;11.83;;
22955;SDS011;40888;48.148;11.526;2023-12-14T06:53:41;16.87;;;11.53;;
22955;SDS011;40888;48.148;11.526;2023-12-14T06:56:08;16.03;;;10.97;;
22955;SDS011;40888;48.148;11.526;2023-12-14T06:58:36;12.93;;;9.63;;
22955;SDS011;40888;48.148;11.526;2023-12-14T07:01:02;16.37;;;11.10;;
22955;SDS011;40888;48.148;11.526;2023-12-14T07:03:28;15.97;;;11.53;;
22955;SDS011;40888;48.148;11.526;2023-12-14T07:05:54;18.33;;;11.57;;
22955;SDS011;40888;48.148;11.526;2023-12-14T07:08:20;15.90;;;11.03;;
22955;SDS011;40888;48.148;11.526;2023-12-14T07:10:46;13.90;;;10.20;;
22955;SDS011;40888;48.148;11.526;2023-12-14T07:13:12;14.97;;;11.20;;
22955;SDS011;40888;48.148;11.526;2023-12-14T07:15:38;19.03;;;12.10;;
22955;SDS011;40888;48.148;11.526;2023-12-14T07:18:04;18.03;;;12.20;;
22955;SDS011;40888;48.148;11.526;2023-12-14T07:20:30;20.73;;;12.43;;
22955;SDS011;40888;48.148;11.526;2023-12-14T07:22:56;19.40;;;12.77;;
22955;SDS011;40888;48.148;11.526;2023-12-14T07:25:22;22.50;;;13.37;;
22955;SDS011;40888;48.148;11.526;2023-12-14T07:27:48;19.53;;;11.70;;
22955;SDS011;40888;48.148;11.526;2023-12-14T07:30:16;21.53;;;14.23;;
22955;SDS011;40888;48.148;11.526;2023-12-14T07:32:42;23.47;;;14.30;;
22955;SDS011;40888;48.148;11.526;2023-12-14T07:35:08;26.57;;;15.17;;
22955;SDS011;40888;48.148;11.526;2023-12-14T07:37:35;29.37;;;16.90;;
22955;SDS011;40888;48.148;11.526;2023-12-14T07:40:01;29.00;;;16.30;;
22955;SDS011;40888;48.148;11.526;2023-12-14T07:42:28;27.83;;;15.87;;
22955;SDS011;40888;48.148;11.526;2023-12-14T07:44:54;28.53;;;17.27;;
22955;SDS011;40888;48.148;11.526;2023-12-14T07:47:20;27.00;;;16.93;;
22955;SDS011;40888;48.148;11.526;2023-12-14T07:49:46;29.07;;;18.87;;
22955;SDS011;40888;48.148;11.526;2023-12-14T07:52:12;31.37;;;18.00;;
22955;SDS011;40888;48.148;11.526;2023-12-14T07:54:39;29.30;;;18.70;;
22955;SDS011;40888;48.148;11.526;2023-12-14T07:57:05;29.33;;;19.03;;
22955;SDS011;40888;48.148;11.526;2023-12-14T07:59:31;29.27;;;18.30;;
22955;SDS011;40888;48.148;11.526;2023-12-14T08:01:57;29.10;;;18.60;;
22955;SDS011;40888;48.148;11.526;2023-12-14T08:04:23;24.93;;;17.27;;
22955;SDS011;40888;48.148;11.526;2023-12-14T08:06:50;26.03;;;17.17;;
22955;SDS011;40888;48.148;11.526;2023-12-14T08:09:16;23.50;;;17.37;;
22955;SDS011;40888;48.148;11.526;2023-12-14T08:11:42;28.47;;;18.43;;
22955;SDS011;40888;48.148;11.526;2023-12-14T08:14:09;31.27;;;19.37;;
22955;SDS011;40888;48.148;11.526;2023-12-14T08:16:35;30.47;;;19.43;;
22955;SDS011;40888;48.148;11.526;2023-12-14T08:19:01;33.87;;;20.30;;
22955;SDS011;40888;48.148;11.526;2023-12-14T08:21:27;28.50;;;19.13;;
22955;SDS011;40888;48.148;11.526;2023-12-14T08:23:53;28.73;;;19.07;;
22955;SDS011;40888;48.148;11.526;2023-12-14T08:26:19;26.97;;;19.07;;
22955;SDS011;40888;48.148;11.526;2023-12-14T08:28:45;28.63;;;19.23;;
22955;SDS011;40888;48.148;11.526;2023-12-14T08:31:12;28.27;;;18.20;;
22955;SDS011;40888;48.148;11.526;2023-12-14T08:33:40;26.77;;;17.87;;
22955;SDS011;40888;48.148;11.526;2023-12-14T08:36:06;27.63;;;18.63;;
22955;SDS011;40888;48.148;11.526;2023-12-14T08:38:32;24.57;;;18.20;;
22955;SDS011;40888;48.148;11.526;2023-12-14T08:40:58;22.17;;;16.73;;
22955;SDS011;40888;48.148;11.526;2023-12-14T08:43:25;24.10;;;18.20;;
22955;SDS011;40888;48.148;11.526;2023-12-14T08:45:51;24.87;;;16.60;;
22955;SDS011;40888;48.148;11.526;2023-12-14T08:48:18;24.90;;;17.30;;
22955;SDS011;40888;48.148;11.526;2023-12-14T08:50:44;23.37;;;16.93;;
22955;SDS011;40888;48.148;11.526;2023-12-14T08:53:11;20.57;;;15.80;;
22955;SDS011;40888;48.148;11.526;2023-12-14T08:55:37;21.47;;;14.57;;
22955;SDS011;40888;48.148;11.526;2023-12-14T08:58:03;23.90;;;16.17;;
22955;SDS011;40888;48.148;11.526;2023-12-14T09:00:29;21.93;;;14.60;;
22955;SDS011;40888;48.148;11.526;2023-12-14T09:02:55;21.87;;;16.23;;
22955;SDS011;40888;48.148;11.526;2023-12-14T09:05:21;18.23;;;14.50;;
22955;SDS011;40888;48.148;11.526;2023-12-14T09:07:47;17.13;;;13.97;;
22955;SDS011;40888;48.148;11.526;2023-12-14T09:10:13;15.23;;;11.97;;
22955;SDS011;40888;48.148;11.526;2023-12-14T09:12:39;16.57;;;12.97;;
22955;SDS011;40888;48.148;11.526;2023-12-14T09:15:05;17.73;;;12.70;;
22955;SDS011;40888;48.148;11.526;2023-12-14T09:17:31;14.27;;;11.53;;
22955;SDS011;40888;48.148;11.526;2023-12-14T09:19:58;13.67;;;11.10;;
22955;SDS011;40888;48.148;11.526;2023-12-14T09:22:24;14.63;;;12.00;;
22955;SDS011;40888;48.148;11.526;2023-12-14T09:24:50;15.80;;;12.00;;
22955;SDS011;40888;48.148;11.526;2023-12-14T09:27:17;16.73;;;12.57;;
22955;SDS011;40888;48.148;11.526;2023-12-14T09:29:43;18.03;;;12.07;;
22955;SDS011;40888;48.148;11.526;2023-12-14T09:32:09;14.67;;;10.87;;
22955;SDS011;40888;48.148;11.526;2023-12-14T09:34:35;13.80;;;10.80;;
22955;SDS011;40888;48.148;11.526;2023-12-14T09:37:01;11.37;;;9.20;;
22955;SDS011;40888;48.148;11.526;2023-12-14T09:39:27;18.37;;;11.47;;
22955;SDS011;40888;48.148;11.526;2023-12-14T09:42:03;14.30;;;11.20;;
22955;SDS011;40888;48.148;11.526;2023-12-14T09:44:29;18.67;;;12.20;;
22955;SDS011;40888;48.148;11.526;2023-12-14T09:46:56;20.43;;;12.60;;
22955;SDS011;40888;48.148;11.526;2023-12-14T09:49:23;20.30;;;14.57;;
22955;SDS011;40888;48.148;11.526;2023-12-14T09:51:53;21.60;;;14.27;;
22955;SDS011;40888;48.148;11.526;2023-12-14T09:54:19;22.30;;;14.13;;
22955;SDS011;40888;48.148;11.526;2023-12-14T09:56:45;21.80;;;14.77;;
22955;SDS011;40888;48.148;11.526;2023-12-14T09:59:12;21.43;;;15.03;;
22955;SDS011;40888;48.148;11.526;2023-12-14T10:01:38;25.17;;;17.20;;
22955;SDS011;40888;48.148;11.526;2023-12-14T10:04:14;24.47;;;17.17;;
22955;SDS011;40888;48.148;11.526;2023-12-14T10:06:41;22.83;;;15.40;;
22955;SDS011;40888;48.148;11.526;2023-12-14T10:09:07;20.50;;;15.47;;
22955;SDS011;40888;48.148;11.526;2023-12-14T10:11:40;17.73;;;12.40;;
22955;SDS011;40888;48.148;11.526;2023-12-14T10:14:19;16.97;;;12.53;;
22955;SDS011;40888;48.148;11.526;2023-12-14T10:16:47;15.47;;;11.20;;
22955;SDS011;40888;48.148;11.526;2023-12-14T10:19:13;14.77;;;11.50;;
22955;SDS011;40888;48.148;11.526;2023-12-14T10:21:39;13.80;;;10.40;;
22955;SDS011;40888;48.148;11.526;2023-12-14T10:24:06;15.23;;;10.70;;
22955;SDS011;40888;48.148;11.526;2023-12-14T10:26:32;14.83;;;11.23;;
22955;SDS011;40888;48.148;11.526;2023-12-14T10:28:58;15.13;;;11.47;;
22955;SDS011;40888;48.148;11.526;2023-12-14T10:31:25;12.30;;;11.00;;
22955;SDS011;40888;48.148;11.526;2023-12-14T10:33:51;14.10;;;11.13;;
22955;SDS011;40888;48.148;11.526;2023-12-14T10:36:21;17.00;;;11.37;;
22955;SDS011;40888;48.148;11.526;2023-12-14T10:38:50;13.93;;;10.80;;
22955;SDS011;40888;48.148;11.526;2023-12-14T10:41:17;13.73;;;11.27;;
22955;SDS011;40888;48.148;11.526;2023-12-14T10:43:43;16.13;;;11.67;;
22955;SDS011;40888;48.148;11.526;2023-12-14T10:46:10;14.33;;;10.83;;
22955;SDS011;40888;48.148;11.526;2023-12-14T10:48:37;14.23;;;11.00;;
22955;SDS011;40888;48.148;11.526;2023-12-14T10:51:09;15.90;;;12.37;;
22955;SDS011;40888;48.148;11.526;2023-12-14T10:53:36;16.40;;;11.77;;
22955;SDS011;40888;48.148;11.526;2023-12-14T10:56:04;13.67;;;10.70;;
22955;SDS011;40888;48.148;11.526;2023-12-14T10:58:55;16.03;;;11.73;;
22955;SDS011;40888;48.148;11.526;2023-12-14T11:01:21;15.40;;;11.50;;
22955;SDS011;40888;48.148;11.526;2023-12-14T11:03:55;17.63;;;12.63;;
22955;SDS011;40888;48.148;11.526;2023-12-14T11:09:00;15.00;;;11.50;;
22955;SDS011;40888;48.148;11.526;2023-12-14T11:11:31;14.30;;;10.97;;
22955;SDS011;40888;48.148;11.526;2023-12-14T11:14:03;13.20;;;10.00;;
22955;SDS011;40888;48.148;11.526;2023-12-14T11:16:33;11.27;;;8.60;;
22955;SDS011;40888;48.148;11.526;2023-12-14T11:21:44;11.23;;;9.20;;
22955;SDS011;40888;48.148;11.526;2023-12-14T11:24:10;11.83;;;8.97;;
22955;SDS011;40888;48.148;11.526;2023-12-14T11:26:36;10.87;;;8.23;;
22955;SDS011;40888;48.148;11.526;2023-12-14T11:29:02;7.93;;;7.13;;
22955;SDS011;40888;48.148;11.526;2023-12-14T11:31:29;8.07;;;6.73;;
22955;SDS011;40888;48.148;11.526;2023-12-14T11:33:55;7.33;;;5.50;;
22955;SDS011;40888;48.148;11.526;2023-12-14T11:36:21;5.63;;;5.13;;
22955;SDS011;40888;48.148;11.526;2023-12-14T11:38:48;6.07;;;5.47;;
22955;SDS011;40888;48.148;11.526;2023-12-14T11:41:15;6.30;;;5.70;;
22955;SDS011;40888;48.148;11.526;2023-12-14T11:43:42;6.13;;;4.73;;
22955;SDS011;40888;48.148;11.526;2023-12-14T11:46:08;6.20;;;5.60;;
22955;SDS011;40888;48.148;11.526;2023-12-14T11:48:34;6.30;;;4.97;;
22955;SDS011;40888;48.148;11.526;2023-12-14T11:51:01;4.57;;;4.17;;
22955;SDS011;40888;48.148;11.526;2023-12-14T11:53:27;5.80;;;4.80;;
22955;SDS011;40888;48.148;11.526;2023-12-14T11:55:53;3.70;;;3.40;;
22955;SDS011;40888;48.148;11.526;2023-12-14T11:58:19;5.60;;;4.80;;
22955;SDS011;40888;48.148;11.526;2023-12-14T12:00:45;5.03;;;4.53;;
22955;SDS011;40888;48.148;11.526;2023-12-14T12:05:39;3.90;;;3.50;;
22955;SDS011;40888;48.148;11.526;2023-12-14T12:08:05;5.37;;;4.00;;
22955;SDS011;40888;48.148;11.526;2023-12-14T12:10:32;5.37;;;4.43;;
22955;SDS011;40888;48.148;11.526;2023-12-14T12:12:58;5.20;;;4.20;;
22955;SDS011;40888;48.148;11.526;2023-12-14T12:15:24;4.90;;;3.70;;
22955;SDS011;40888;48.148;11.526;2023-12-14T12:17:50;4.40;;;3.60;;
22955;SDS011;40888;48.148;11.526;2023-12-14T12:20:16;4.37;;;3.97;;
22955;SDS011;40888;48.148;11.526;2023-12-14T12:22:42;4.77;;;3.13;;
22955;SDS011;40888;48.148;11.526;2023-12-14T12:25:08;3.87;;;3.43;;
22955;SDS011;40888;48.148;11.526;2023-12-14T12:27:34;3.80;;;3.50;;
22955;SDS011;40888;48.148;11.526;2023-12-14T12:30:00;4.80;;;3.80;;
22955;SDS011;40888;48.148;11.526;2023-12-14T12:32:26;3.67;;;3.13;;
22955;SDS011;40888;48.148;11.526;2023-12-14T12:34:52;4.63;;;3.47;;
22955;SDS011;40888;48.148;11.526;2023-12-14T12:37:18;3.90;;;3.50;;
22955;SDS011;40888;48.148;11.526;2023-12-14T12:39:44;3.80;;;3.20;;
22955;SDS011;40888;48.148;11.526;2023-12-14T12:42:10;3.80;;;3.50;;
22955;SDS011;40888;48.148;11.526;2023-12-14T12:44:36;3.70;;;3.37;;
22955;SDS011;40888;48.148;11.526;2023-12-14T12:47:02;5.07;;;3.37;;
22955;SDS011;40888;48.148;11.526;2023-12-14T12:49:29;3.90;;;3.47;;
22955;SDS011;40888;48.148;11.526;2023-12-14T12:51:55;4.13;;;3.50;;
22955;SDS011;40888;48.148;11.526;2023-12-14T12:54:21;3.93;;;3.50;;
22955;SDS011;40888;48.148;11.526;2023-12-14T12:56:47;5.23;;;3.83;;
22955;SDS011;40888;48.148;11.526;2023-12-14T12:59:13;3.77;;;3.43;;
22955;SDS011;40888;48.148;11.526;2023-12-14T13:01:39;3.33;;;3.03;;
22955;SDS011;40888;48.148;11.526;2023-12-14T13:04:08;5.13;;;3.03;;
22955;SDS011;40888;48.148;11.526;2023-12-14T13:06:43;3.63;;;3.30;;
22955;SDS011;40888;48.148;11.526;2023-12-14T13:09:09;4.23;;;3.57;;
22955;SDS011;40888;48.148;11.526;2023-12-14T13:11:35;4.10;;;3.37;;
22955;SDS011;40888;48.148;11.526;2023-12-14T13:14:01;4.37;;;3.90;;
22955;SDS011;40888;48.148;11.526;2023-12-14T13:16:32;3.90;;;3.60;;
22955;SDS011;40888;48.148;11.526;2023-12-14T13:18:58;3.90;;;3.50;;
22955;SDS011;40888;48.148;11.526;2023-12-14T13:21:24;4.87;;;4.17;;
22955;SDS011;40888;48.148;11.526;2023-12-14T13:23:50;4.60;;;4.00;;
22955;SDS011;40888;48.148;11.526;2023-12-14T13:26:16;4.33;;;3.93;;
22955;SDS011;40888;48.148;11.526;2023-12-14T13:28:42;3.83;;;3.43;;
22955;SDS011;40888;48.148;11.526;2023-12-14T13:31:08;5.83;;;3.80;;
22955;SDS011;40888;48.148;11.526;2023-12-14T13:33:35;4.90;;;3.60;;
22955;SDS011;40888;48.148;11.526;2023-12-14T13:36:01;7.93;;;4.40;;
22955;SDS011;40888;48.148;11.526;2023-12-14T13:38:27;6.57;;;3.80;;
22955;SDS011;40888;48.148;11.526;2023-12-14T13:40:53;4.90;;;3.60;;
22955;SDS011;40888;48.148;11.526;2023-12-14T13:43:19;5.40;;;4.23;;
22955;SDS011;40888;48.148;11.526;2023-12-14T13:45:45;4.90;;;3.90;;
22955;SDS011;40888;48.148;11.526;2023-12-14T13:48:12;5.03;;;3.90;;
22955;SDS011;40888;48.148;11.526;2023-12-14T13:50:38;7.23;;;4.63;;
22955;SDS011;40888;48.148;11.526;2023-12-14T13:53:05;4.23;;;3.83;;
22955;SDS011;40888;48.148;11.526;2023-12-14T13:55:31;4.77;;;4.13;;
22955;SDS011;40888;48.148;11.526;2023-12-14T13:57:57;7.23;;;4.13;;
22955;SDS011;40888;48.148;11.526;2023-12-14T14:00:25;4.93;;;4.40;;
22955;SDS011;40888;48.148;11.526;2023-12-14T14:02:51;6.03;;;4.20;;
22955;SDS011;40888;48.148;11.526;2023-12-14T14:05:17;4.93;;;4.13;;
22955;SDS011;40888;48.148;11.526;2023-12-14T14:07:43;5.30;;;4.30;;
22955;SDS011;40888;48.148;11.526;2023-12-14T14:10:10;5.73;;;4.10;;
22955;SDS011;40888;48.148;11.526;2023-12-14T14:12:36;5.03;;;3.93;;
22955;SDS011;40888;48.148;11.526;2023-12-14T14:15:02;7.17;;;3.90;;
22955;SDS011;40888;48.148;11.526;2023-12-14T14:17:28;5.30;;;3.97;;
22955;SDS011;40888;48.148;11.526;2023-12-14T14:19:54;7.37;;;4.60;;
22955;SDS011;40888;48.148;11.526;2023-12-14T14:22:20;4.00;;;3.67;;
22955;SDS011;40888;48.148;11.526;2023-12-14T14:24:46;5.37;;;4.17;;
22955;SDS011;40888;48.148;11.526;2023-12-14T14:27:12;6.33;;;4.83;;
22955;SDS011;40888;48.148;11.526;2023-12-14T14:29:39;4.23;;;3.80;;